Florence, Minnesota
Current Conditions -  °F | °C
As of 10:34 PM on Friday 24 Oct 2014 (Local Time) from KPQN Reporting Station
Clear Clear  
Wind Chill: 52°   Ceiling: Unl
Heat Index: 52°   Visibility: 10mi
Dew Point: 39°   Wind: 8mph
Humidity: 62%   Direction: 290°WNW
Pressure: 29.98"   Gusts: NA
Location:  44.1777°N, 96.0531°W
Report Text: KPQN 250334Z AUTO 29007KT 10SM CLR 11/04 A2998 RMK AO2
Loading
Personal Weather Stations






























Interactive Weather Map
Tropical Storm Tracking
New forecast layout! Learn more

10-Day Weather Forecast

Advertisements
Track Severe Weather on mobile